createdAt,value
2018-07-10T00:00:30.307Z,19.88
2018-07-10T00:03:19.134Z,19.83
2018-07-10T00:06:56.450Z,19.76
2018-07-10T00:11:43.145Z,19.67
2018-07-10T00:14:12.785Z,19.62
2018-07-10T00:16:41.927Z,19.60
2018-07-10T00:19:10.802Z,19.59
2018-07-10T00:21:40.343Z,19.60
2018-07-10T00:24:09.127Z,19.62
2018-07-10T00:26:38.514Z,19.57
2018-07-10T00:29:07.298Z,19.58
2018-07-10T00:31:36.200Z,19.68
2018-07-10T00:34:05.000Z,19.74
2018-07-10T00:36:33.759Z,19.74
2018-07-10T00:39:05.246Z,19.69
2018-07-10T00:41:38.308Z,19.77
2018-07-10T00:44:07.852Z,19.74
2018-07-10T00:46:38.388Z,19.75
2018-07-10T00:49:07.913Z,19.69
2018-07-10T00:51:37.624Z,19.59
2018-07-10T00:54:06.543Z,19.62
2018-07-10T00:56:35.957Z,19.60
2018-07-10T00:59:05.360Z,19.58
2018-07-10T01:01:34.807Z,19.56
2018-07-10T01:04:03.805Z,19.56
2018-07-10T01:06:32.780Z,19.52
2018-07-10T01:09:01.818Z,19.54
2018-07-10T01:11:31.139Z,19.56
2018-07-10T01:14:00.194Z,19.54
2018-07-10T01:16:36.875Z,19.55
2018-07-10T01:19:13.827Z,19.57
2018-07-10T01:21:43.574Z,19.60
2018-07-10T01:24:12.541Z,19.54
2018-07-10T01:26:42.552Z,19.45
2018-07-10T01:29:22.043Z,19.37
2018-07-10T01:31:55.236Z,19.35
2018-07-10T01:34:25.226Z,19.30
2018-07-10T01:36:55.452Z,19.26
2018-07-10T01:39:24.431Z,19.31
2018-07-10T01:41:53.453Z,19.30
2018-07-10T01:44:22.802Z,19.30
2018-07-10T01:46:51.776Z,19.29
2018-07-10T01:49:20.935Z,19.28
2018-07-10T01:51:50.203Z,19.20
2018-07-10T01:54:19.134Z,19.10
2018-07-10T01:56:48.349Z,19.04
2018-07-10T01:59:18.145Z,19.03
2018-07-10T02:01:47.153Z,18.97
2018-07-10T02:04:16.883Z,18.92
2018-07-10T02:06:46.145Z,18.89
2018-07-10T02:09:16.054Z,18.81
2018-07-10T02:11:45.008Z,18.76
2018-07-10T02:14:13.907Z,18.69
2018-07-10T02:16:43.085Z,18.63
2018-07-10T02:19:12.267Z,18.61
2018-07-10T02:21:41.776Z,18.59
2018-07-10T02:24:10.883Z,18.47
2018-07-10T02:26:40.312Z,18.51
2018-07-10T02:29:09.080Z,18.47
2018-07-10T02:31:38.512Z,18.41
2018-07-10T02:34:07.749Z,18.38
2018-07-10T02:36:36.654Z,18.36
2018-07-10T02:39:05.653Z,18.38
2018-07-10T02:41:34.920Z,18.40
2018-07-10T02:44:05.839Z,18.42
2018-07-10T02:46:38.317Z,18.46
2018-07-10T02:49:18.004Z,18.48
2018-07-10T02:52:04.190Z,18.49
2018-07-10T02:54:48.592Z,18.50
2018-07-10T02:57:17.383Z,18.52
2018-07-10T02:59:47.446Z,18.53
2018-07-10T03:02:26.762Z,18.52
2018-07-10T03:04:58.838Z,18.51
2018-07-10T03:07:28.547Z,18.47
2018-07-10T03:09:58.532Z,18.47
2018-07-10T03:12:28.711Z,18.47
2018-07-10T03:15:00.299Z,18.43
2018-07-10T03:17:29.261Z,18.40
2018-07-10T03:20:00.264Z,18.42
2018-07-10T03:22:29.001Z,18.43
2018-07-10T03:24:57.788Z,18.44
2018-07-10T03:27:26.514Z,18.47
2018-07-10T03:29:55.367Z,18.47
2018-07-10T03:32:24.323Z,18.48
2018-07-10T03:34:53.133Z,18.46
2018-07-10T03:37:22.061Z,18.48
2018-07-10T03:39:51.011Z,18.50
2018-07-10T03:42:20.087Z,18.47
2018-07-10T03:44:49.641Z,18.49
2018-07-10T03:47:20.541Z,18.42
2018-07-10T03:49:49.788Z,18.46
2018-07-10T03:52:37.855Z,18.39
2018-07-10T03:55:15.229Z,18.37
2018-07-10T03:57:44.325Z,18.40
2018-07-10T04:00:15.022Z,18.41
2018-07-10T04:02:48.207Z,18.41
2018-07-10T04:05:18.462Z,18.51
2018-07-10T04:07:48.425Z,18.50
2018-07-10T04:10:18.860Z,18.61
2018-07-10T04:12:49.679Z,18.70
2018-07-10T04:15:19.037Z,18.77
2018-07-10T04:17:58.555Z,18.87
2018-07-10T04:20:31.477Z,18.97
2018-07-10T04:23:00.680Z,19.03
2018-07-10T04:25:34.725Z,19.10
2018-07-10T04:28:08.472Z,19.22
2018-07-10T04:30:46.551Z,19.23
2018-07-10T04:33:15.875Z,19.34
2018-07-10T04:35:44.938Z,19.52
2018-07-10T04:38:14.613Z,19.59
2018-07-10T04:40:43.883Z,19.59
2018-07-10T04:43:17.569Z,19.62
2018-07-10T04:45:48.058Z,19.63
2018-07-10T04:48:36.220Z,19.56
2018-07-10T04:51:44.149Z,19.68
2018-07-10T04:55:25.091Z,19.72
2018-07-10T04:57:59.068Z,19.73
2018-07-10T05:00:29.044Z,19.67
2018-07-10T05:02:59.966Z,19.77
2018-07-10T05:05:30.881Z,19.89
2018-07-10T05:08:00.669Z,19.89
2018-07-10T05:10:32.868Z,20.17
2018-07-10T05:13:04.644Z,20.49
2018-07-10T05:15:34.004Z,20.84
2018-07-10T05:18:08.913Z,20.78
2018-07-10T05:20:38.011Z,20.99
2018-07-10T05:23:07.710Z,21.06
2018-07-10T05:25:39.592Z,21.30
2018-07-10T05:28:09.029Z,21.30
2018-07-10T05:30:39.353Z,21.62
2018-07-10T05:33:09.135Z,21.60
2018-07-10T05:35:37.931Z,21.87
2018-07-10T05:38:07.423Z,21.95
2018-07-10T05:40:36.480Z,22.02
2018-07-10T05:43:12.671Z,22.31
2018-07-10T05:45:42.183Z,22.38
2018-07-10T05:48:11.448Z,22.50
2018-07-10T05:50:41.344Z,22.52
2018-07-10T05:53:11.936Z,22.37
2018-07-10T05:55:45.959Z,22.59
2018-07-10T05:58:15.331Z,22.59
2018-07-10T06:00:44.551Z,22.71
2018-07-10T06:03:13.729Z,22.90
2018-07-10T06:05:42.857Z,22.66
2018-07-10T06:08:14.875Z,22.96
2018-07-10T06:10:44.306Z,22.92
2018-07-10T06:13:13.485Z,23.13
2018-07-10T06:15:42.431Z,23.47
2018-07-10T06:18:11.525Z,23.62
2018-07-10T06:20:42.452Z,23.83
2018-07-10T06:23:11.332Z,23.16
2018-07-10T06:25:41.041Z,23.19
2018-07-10T06:28:16.024Z,23.20
2018-07-10T06:30:45.249Z,22.95
2018-07-10T06:33:25.495Z,23.12
2018-07-10T06:36:29.210Z,23.34
2018-07-10T06:39:06.211Z,23.39
2018-07-10T06:41:35.119Z,23.22
2018-07-10T06:44:04.435Z,23.42
2018-07-10T06:46:39.326Z,23.50
2018-07-10T06:49:43.194Z,23.33
2018-07-10T06:52:16.974Z,22.92
2018-07-10T06:54:58.260Z,22.93
2018-07-10T06:57:32.176Z,23.04
2018-07-10T07:00:05.944Z,22.81
2018-07-10T07:02:36.680Z,22.95
2018-07-10T07:05:05.939Z,22.80
2018-07-10T07:07:36.133Z,22.59
2018-07-10T07:10:06.835Z,22.15
2018-07-10T07:12:36.640Z,21.90
2018-07-10T07:15:08.644Z,21.84
2018-07-10T07:17:41.399Z,21.85
2018-07-10T07:20:10.348Z,21.75
2018-07-10T07:22:39.265Z,21.46
2018-07-10T07:25:08.804Z,21.66
2018-07-10T07:27:38.332Z,21.35
2018-07-10T07:30:07.628Z,21.36
2018-07-10T07:32:36.875Z,21.20
2018-07-10T07:35:05.987Z,21.43
2018-07-10T07:37:37.902Z,21.08
2018-07-10T07:40:06.836Z,20.84
2018-07-10T07:42:35.731Z,21.04
2018-07-10T07:45:04.940Z,21.41
2018-07-10T07:47:33.858Z,21.52
2018-07-10T07:50:02.588Z,21.48
2018-07-10T07:52:32.391Z,21.64
2018-07-10T07:55:02.564Z,22.22
2018-07-10T07:57:31.292Z,22.63
2018-07-10T08:00:00.131Z,22.49
2018-07-10T08:02:28.990Z,22.82
2018-07-10T08:04:58.071Z,23.19
2018-07-10T08:07:27.573Z,23.64
2018-07-10T08:09:57.502Z,23.75
2018-07-10T08:12:29.568Z,23.70
2018-07-10T08:15:00.168Z,23.75
2018-07-10T08:17:29.608Z,24.22
2018-07-10T08:19:59.490Z,24.02
2018-07-10T08:22:28.850Z,23.89
2018-07-10T08:24:57.696Z,24.43
2018-07-10T08:27:27.227Z,24.66
2018-07-10T08:29:57.107Z,24.69
2018-07-10T08:32:27.938Z,24.57
2018-07-10T08:34:56.872Z,24.23
2018-07-10T08:37:25.656Z,24.64
2018-07-10T08:39:54.703Z,24.90
2018-07-10T08:42:23.623Z,24.87
2018-07-10T08:44:52.407Z,24.54
2018-07-10T08:47:21.371Z,24.37
2018-07-10T08:49:50.153Z,25.38
2018-07-10T08:52:20.341Z,25.87
2018-07-10T08:54:49.323Z,26.68
2018-07-10T08:57:18.385Z,26.51
2018-07-10T08:59:48.175Z,25.98
2018-07-10T09:02:17.020Z,25.85
2018-07-10T09:04:45.762Z,24.80
2018-07-10T09:07:14.677Z,23.91
2018-07-10T09:09:43.535Z,23.54
2018-07-10T09:12:13.047Z,23.97
2018-07-10T09:14:42.045Z,23.74
2018-07-10T09:17:11.090Z,23.25
2018-07-10T09:19:40.650Z,22.71
2018-07-10T09:22:12.042Z,21.75
2018-07-10T09:24:57.439Z,21.71
2018-07-10T09:27:26.610Z,21.72
2018-07-10T09:29:55.760Z,21.91
2018-07-10T09:32:29.790Z,21.91
2018-07-10T09:34:59.556Z,22.48
2018-07-10T09:37:35.817Z,22.28
2018-07-10T09:40:09.927Z,22.64
2018-07-10T09:42:44.214Z,22.79
2018-07-10T09:45:13.421Z,23.08
2018-07-10T09:47:43.567Z,23.76
2018-07-10T09:50:13.336Z,23.59
2018-07-10T09:52:42.642Z,24.14
2018-07-10T09:55:12.059Z,24.49
2018-07-10T09:57:43.143Z,24.02
2018-07-10T10:00:12.143Z,24.46
2018-07-10T10:02:42.915Z,25.20
2018-07-10T10:05:12.133Z,24.98
2018-07-10T10:07:41.779Z,23.99
2018-07-10T10:10:11.254Z,23.19
2018-07-10T10:12:40.291Z,23.05
2018-07-10T10:15:09.395Z,24.42
2018-07-10T10:17:38.533Z,25.14
2018-07-10T10:20:08.606Z,25.08
2018-07-10T10:22:38.015Z,25.14
2018-07-10T10:25:07.178Z,24.84
2018-07-10T10:27:36.619Z,24.37
2018-07-10T10:30:05.722Z,24.70
2018-07-10T10:32:34.829Z,24.47
2018-07-10T10:35:04.084Z,24.33
2018-07-10T10:37:33.672Z,23.89
2018-07-10T10:40:02.834Z,23.31
2018-07-10T10:42:32.220Z,23.10
2018-07-10T10:45:01.869Z,23.07
2018-07-10T10:47:31.890Z,22.89
2018-07-10T10:50:02.094Z,23.91
2018-07-10T10:52:32.054Z,24.55
2018-07-10T10:55:01.172Z,24.62
2018-07-10T10:57:33.417Z,24.01
2018-07-10T11:00:02.798Z,23.28
2018-07-10T11:02:32.265Z,23.60
2018-07-10T11:05:02.419Z,22.86
2018-07-10T11:07:32.477Z,22.32
2018-07-10T11:10:01.791Z,22.63
2018-07-10T11:12:32.252Z,22.50
2018-07-10T11:15:02.657Z,22.30
2018-07-10T11:17:41.073Z,22.22
2018-07-10T11:20:25.821Z,21.91
2018-07-10T11:23:05.265Z,22.03
2018-07-10T11:25:41.686Z,21.71
2018-07-10T11:28:13.144Z,21.16
2018-07-10T11:30:41.964Z,20.94
2018-07-10T11:33:11.574Z,21.31
2018-07-10T11:35:40.493Z,21.86
2018-07-10T11:38:12.425Z,21.70
2018-07-10T11:40:44.609Z,21.55
2018-07-10T11:43:13.896Z,22.03
2018-07-10T11:45:43.071Z,21.80
2018-07-10T11:48:12.211Z,22.31
2018-07-10T11:50:41.058Z,22.62
2018-07-10T11:53:09.806Z,23.17
2018-07-10T11:55:39.445Z,23.01
2018-07-10T11:58:09.747Z,23.21
2018-07-10T12:00:38.762Z,24.19
2018-07-10T12:03:08.117Z,24.53
2018-07-10T12:05:39.864Z,24.09
2018-07-10T12:08:09.018Z,24.03
2018-07-10T12:10:38.952Z,24.12
2018-07-10T12:13:08.878Z,24.22
2018-07-10T12:15:38.078Z,25.44
2018-07-10T12:18:07.720Z,26.88
2018-07-10T12:20:39.916Z,29.58
2018-07-10T12:23:09.753Z,31.01
2018-07-10T12:25:46.035Z,33.84
2018-07-10T12:28:15.755Z,34.12
2018-07-10T12:30:45.150Z,32.88
2018-07-10T12:33:14.029Z,30.59
2018-07-10T12:35:42.835Z,28.38
2018-07-10T12:38:12.528Z,27.23
2018-07-10T12:40:41.465Z,27.59
2018-07-10T12:43:10.730Z,28.96
2018-07-10T12:45:40.395Z,29.95
2018-07-10T12:48:09.423Z,30.09
2018-07-10T12:50:38.541Z,30.64
2018-07-10T12:53:07.328Z,29.08
2018-07-10T12:55:36.990Z,28.04
2018-07-10T12:58:06.037Z,29.79
2018-07-10T13:00:37.325Z,31.65
2018-07-10T13:03:07.764Z,34.05
2018-07-10T13:05:44.799Z,32.77
2018-07-10T13:08:13.884Z,31.10
2018-07-10T13:10:43.001Z,29.66
2018-07-10T13:13:12.589Z,26.74
2018-07-10T13:15:41.796Z,27.88
2018-07-10T13:18:11.086Z,29.14
2018-07-10T13:20:40.332Z,30.88
2018-07-10T13:23:10.718Z,33.60
2018-07-10T13:25:39.828Z,33.80
2018-07-10T13:28:08.572Z,33.46
2018-07-10T13:30:37.430Z,32.09
2018-07-10T13:33:13.020Z,32.85
2018-07-10T13:35:41.961Z,32.03
2018-07-10T13:38:10.879Z,34.72
2018-07-10T13:40:39.971Z,32.55
2018-07-10T13:43:08.803Z,29.52
2018-07-10T13:45:37.529Z,30.99
2018-07-10T13:48:06.381Z,31.56
2018-07-10T13:50:35.497Z,32.48
2018-07-10T13:53:04.753Z,28.78
2018-07-10T13:55:33.576Z,30.87
2018-07-10T13:58:07.380Z,33.60
2018-07-10T14:00:39.200Z,36.69
2018-07-10T14:03:08.006Z,35.09
2018-07-10T14:05:36.847Z,30.60
2018-07-10T14:08:05.770Z,29.09
2018-07-10T14:10:36.768Z,31.99
2018-07-10T14:13:06.309Z,32.92
2018-07-10T14:15:35.815Z,35.87
2018-07-10T14:18:05.218Z,32.43
2018-07-10T14:20:43.159Z,32.94
2018-07-10T14:23:12.512Z,29.27
2018-07-10T14:25:41.288Z,31.20
2018-07-10T14:28:10.065Z,30.35
2018-07-10T14:30:39.047Z,28.63
2018-07-10T14:33:07.898Z,30.93
2018-07-10T14:35:36.864Z,37.15
2018-07-10T14:38:06.926Z,39.25
2018-07-10T14:40:37.461Z,39.72
2018-07-10T14:43:06.531Z,41.34
2018-07-10T14:45:37.068Z,36.38
2018-07-10T14:48:07.301Z,34.36
2018-07-10T14:50:36.488Z,40.74
2018-07-10T14:53:05.688Z,40.15
2018-07-10T14:55:34.760Z,43.59
2018-07-10T14:58:03.847Z,41.60
2018-07-10T15:00:32.788Z,41.49
2018-07-10T15:03:01.627Z,41.46
2018-07-10T15:05:30.552Z,41.46
2018-07-10T15:07:59.456Z,42.46
2018-07-10T15:10:28.120Z,38.46
2018-07-10T15:12:56.800Z,39.57
2018-07-10T15:15:25.760Z,41.23
2018-07-10T15:17:59.537Z,40.33
2018-07-10T15:20:28.269Z,35.72
2018-07-10T15:22:58.177Z,39.19
2018-07-10T15:25:26.882Z,41.16
2018-07-10T15:27:55.654Z,45.24
2018-07-10T15:30:24.437Z,41.74
2018-07-10T15:32:53.203Z,45.33
2018-07-10T15:35:21.949Z,45.18
2018-07-10T15:37:50.762Z,46.43
2018-07-10T15:40:19.887Z,44.45
2018-07-10T15:42:48.879Z,44.19
2018-07-10T15:45:17.575Z,43.41
2018-07-10T15:47:46.953Z,42.84
2018-07-10T15:50:16.755Z,44.95
2018-07-10T15:52:45.646Z,45.09
2018-07-10T15:55:14.297Z,46.76
2018-07-10T15:57:43.199Z,46.60
2018-07-10T16:00:12.161Z,42.79
2018-07-10T16:02:40.952Z,40.54
2018-07-10T16:05:09.886Z,43.77
2018-07-10T16:07:38.729Z,45.60
2018-07-10T16:10:07.676Z,44.41
2018-07-10T16:12:36.804Z,45.38
2018-07-10T16:15:05.505Z,43.25
2018-07-10T16:17:34.388Z,46.39
2018-07-10T16:20:06.691Z,45.31
2018-07-10T16:22:38.363Z,47.07
2018-07-10T16:25:12.417Z,44.55
2018-07-10T16:27:44.217Z,44.60
2018-07-10T16:30:15.329Z,43.69
2018-07-10T16:32:44.159Z,42.42
2018-07-10T16:35:13.107Z,41.48
2018-07-10T16:43:40.557Z,42.30
2018-07-10T16:46:09.451Z,42.45
2018-07-10T16:48:47.501Z,42.21
2018-07-10T16:51:29.221Z,42.37
2018-07-10T16:53:59.871Z,41.04
2018-07-10T16:56:28.995Z,41.45
2018-07-10T16:58:58.335Z,41.81
2018-07-10T17:01:28.684Z,37.25
2018-07-10T17:03:59.942Z,39.86
2018-07-10T17:06:28.728Z,39.24
2018-07-10T17:08:57.522Z,37.38
2018-07-10T17:11:26.235Z,40.60
2018-07-10T17:13:55.101Z,40.90
2018-07-10T17:16:28.574Z,39.92
2018-07-10T17:18:57.956Z,36.89
2018-07-10T17:21:27.962Z,32.66
2018-07-10T17:24:00.182Z,35.29
2018-07-10T17:26:29.385Z,30.81
2018-07-10T17:28:58.396Z,30.70
2018-07-10T17:31:27.389Z,34.25
2018-07-10T17:33:56.164Z,36.81
2018-07-10T17:36:24.932Z,37.64
2018-07-10T17:38:53.815Z,34.78
2018-07-10T17:41:23.485Z,34.96
2018-07-10T17:43:52.400Z,34.32
2018-07-10T17:46:21.194Z,34.65
2018-07-10T17:48:50.194Z,37.32
2018-07-10T17:51:19.104Z,37.47
2018-07-10T17:53:48.939Z,38.19
2018-07-10T17:56:17.744Z,36.79
2018-07-10T17:58:46.568Z,36.37
2018-07-10T18:01:15.342Z,38.33
2018-07-10T18:03:44.215Z,35.48
2018-07-10T18:06:13.040Z,31.22
2018-07-10T18:08:41.741Z,29.32
2018-07-10T18:11:10.722Z,27.83
2018-07-10T18:13:39.557Z,25.98
2018-07-10T18:16:08.442Z,25.75
2018-07-10T18:18:37.361Z,25.00
2018-07-10T18:21:06.335Z,24.25
2018-07-10T18:23:35.179Z,24.46
2018-07-10T18:26:04.190Z,23.96
2018-07-10T18:28:33.013Z,23.61
2018-07-10T18:31:02.057Z,23.32
2018-07-10T18:33:30.849Z,22.72
2018-07-10T18:35:59.680Z,22.45
2018-07-10T18:38:28.727Z,22.53
2018-07-10T18:40:57.654Z,22.31
2018-07-10T18:43:26.511Z,21.95
2018-07-10T18:45:55.287Z,21.93
2018-07-10T18:48:26.807Z,21.73
2018-07-10T18:50:56.290Z,21.50
2018-07-10T18:53:25.117Z,21.36
2018-07-10T18:55:54.240Z,21.27
2018-07-10T18:58:32.547Z,21.00
2018-07-10T19:01:05.825Z,21.04
2018-07-10T19:03:36.268Z,21.01
2018-07-10T19:06:08.885Z,20.96
2018-07-10T19:08:39.853Z,20.87
2018-07-10T19:11:09.421Z,20.89
2018-07-10T19:13:38.399Z,20.86
2018-07-10T19:16:07.197Z,20.79
2018-07-10T19:18:36.383Z,20.66
2018-07-10T19:21:16.659Z,20.57
2018-07-10T19:23:47.754Z,20.60
2018-07-10T19:26:22.353Z,20.48
2018-07-10T19:28:52.726Z,20.34
2018-07-10T19:31:26.180Z,20.19
2018-07-10T19:33:56.485Z,20.01
2018-07-10T19:36:25.869Z,19.97
2018-07-10T19:38:54.643Z,19.92
2018-07-10T19:41:23.872Z,19.80
2018-07-10T19:43:53.283Z,19.67
2018-07-10T19:46:22.687Z,19.61
2018-07-10T19:48:53.747Z,19.45
2018-07-10T19:51:25.202Z,19.40
2018-07-10T19:53:56.845Z,19.35
2018-07-10T19:56:25.816Z,19.28
2018-07-10T19:58:54.729Z,19.36
2018-07-10T20:01:37.137Z,19.33
2018-07-10T20:04:10.409Z,19.36
2018-07-10T20:07:52.594Z,19.32
2018-07-10T20:10:29.956Z,19.27
2018-07-10T20:13:06.077Z,19.21
2018-07-10T20:15:43.403Z,19.17
2018-07-10T20:18:35.856Z,19.08
2018-07-10T20:21:14.759Z,19.04
2018-07-10T20:23:52.360Z,18.86
2018-07-10T20:28:38.807Z,18.81
2018-07-10T20:31:10.681Z,18.73
2018-07-10T20:33:49.375Z,18.65
2018-07-10T20:36:23.438Z,18.61
2018-07-10T20:38:52.845Z,18.55
2018-07-10T20:41:24.499Z,18.51
2018-07-10T20:43:53.355Z,18.40
2018-07-10T20:46:24.843Z,18.36
2018-07-10T20:48:57.580Z,18.31
2018-07-10T20:51:31.866Z,18.29
2018-07-10T20:54:07.276Z,18.27
2018-07-10T20:58:49.191Z,18.25
2018-07-10T21:01:17.994Z,18.39
2018-07-10T21:03:52.002Z,18.46
2018-07-10T21:06:43.990Z,18.53
2018-07-10T21:09:14.935Z,18.53
2018-07-10T21:12:04.166Z,18.45
2018-07-10T21:14:40.623Z,18.46
2018-07-10T21:17:14.366Z,18.37
2018-07-10T21:19:53.018Z,18.31
2018-07-10T21:23:06.505Z,18.20
2018-07-10T21:25:57.843Z,18.25
2018-07-10T21:28:34.765Z,18.21
2018-07-10T21:31:12.681Z,18.14
2018-07-10T21:33:47.632Z,18.19
2018-07-10T21:36:20.352Z,18.02
2018-07-10T21:39:00.913Z,17.97
2018-07-10T21:41:46.249Z,17.86
2018-07-10T21:44:38.590Z,17.92
2018-07-10T21:47:57.435Z,17.82
2018-07-10T21:50:34.111Z,17.64
2018-07-10T21:53:05.253Z,17.63
2018-07-10T21:55:34.054Z,17.52
2018-07-10T21:58:03.967Z,17.38
2018-07-10T22:00:50.728Z,17.28
2018-07-10T22:03:19.502Z,17.17
2018-07-10T22:05:48.292Z,17.01
2018-07-10T22:08:17.525Z,16.99
2018-07-10T22:10:46.301Z,16.91
2018-07-10T22:13:15.080Z,16.88
2018-07-10T22:15:44.074Z,16.79
2018-07-10T22:18:12.985Z,16.75
2018-07-10T22:20:46.408Z,16.75
2018-07-10T22:23:15.340Z,16.71
2018-07-10T22:25:44.380Z,16.57
2018-07-10T22:28:13.554Z,16.53
2018-07-10T22:30:51.383Z,16.45
2018-07-10T22:33:21.409Z,16.41
2018-07-10T22:35:50.621Z,16.34
2018-07-10T22:38:20.968Z,16.34
2018-07-10T22:40:51.106Z,16.32
2018-07-10T22:43:19.793Z,16.26
2018-07-10T22:45:49.156Z,16.24
2018-07-10T22:48:18.087Z,16.28
2018-07-10T22:50:47.133Z,16.22
2018-07-10T22:53:15.910Z,16.27
2018-07-10T22:55:44.823Z,16.32
2018-07-10T22:58:13.681Z,16.32
2018-07-10T23:00:42.393Z,16.25
2018-07-10T23:03:20.191Z,16.23
2018-07-10T23:05:49.901Z,16.15
2018-07-10T23:08:20.800Z,16.15
2018-07-10T23:10:50.501Z,16.09
2018-07-10T23:13:19.710Z,16.11
2018-07-10T23:15:49.202Z,16.05
2018-07-10T23:18:19.603Z,16.00
2018-07-10T23:20:48.456Z,16.01
2018-07-10T23:23:17.692Z,15.86
2018-07-10T23:25:46.501Z,15.85
2018-07-10T23:28:15.425Z,15.84
2018-07-10T23:30:44.730Z,15.80
2018-07-10T23:33:15.164Z,15.70
2018-07-10T23:35:46.093Z,15.68
2018-07-10T23:38:28.752Z,15.66
2018-07-10T23:41:00.302Z,15.60
2018-07-10T23:43:34.584Z,15.58
2018-07-10T23:46:05.696Z,15.54
2018-07-10T23:48:34.766Z,15.62
2018-07-10T23:51:03.545Z,15.59
2018-07-10T23:53:54.688Z,15.60
2018-07-10T23:56:23.807Z,15.55
2018-07-10T23:58:52.591Z,15.47
